sensor_id;sensor_type;location;lat;lon;timestamp;temperature;humidity
39957;DHT22;48483;44.640;7.494;2022-12-05T00:01:15;7.70;99.90
39957;DHT22;48483;44.640;7.494;2022-12-05T00:03:43;7.70;99.90
39957;DHT22;48483;44.640;7.494;2022-12-05T00:06:10;7.70;99.90
39957;DHT22;48483;44.640;7.494;2022-12-05T00:08:37;7.70;99.90
39957;DHT22;48483;44.640;7.494;2022-12-05T00:11:10;7.70;99.90
39957;DHT22;48483;44.640;7.494;2022-12-05T00:13:36;7.70;99.90
39957;DHT22;48483;44.640;7.494;2022-12-05T00:16:07;7.70;99.90
39957;DHT22;48483;44.640;7.494;2022-12-05T00:18:34;7.70;99.90
39957;DHT22;48483;44.640;7.494;2022-12-05T00:21:03;7.70;99.90
39957;DHT22;48483;44.640;7.494;2022-12-05T00:23:29;7.80;99.90
39957;DHT22;48483;44.640;7.494;2022-12-05T00:25:56;7.70;99.90
39957;DHT22;48483;44.640;7.494;2022-12-05T00:28:26;7.80;99.90
39957;DHT22;48483;44.640;7.494;2022-12-05T00:30:53;7.80;99.90
39957;DHT22;48483;44.640;7.494;2022-12-05T00:33:20;7.80;99.90
39957;DHT22;48483;44.640;7.494;2022-12-05T00:35:46;7.80;99.90
39957;DHT22;48483;44.640;7.494;2022-12-05T00:38:14;7.80;99.90
39957;DHT22;48483;44.640;7.494;2022-12-05T00:40:41;7.80;99.90
39957;DHT22;48483;44.640;7.494;2022-12-05T00:43:07;7.80;99.90
39957;DHT22;48483;44.640;7.494;2022-12-05T00:45:34;7.80;99.90
39957;DHT22;48483;44.640;7.494;2022-12-05T00:48:01;7.80;99.90
39957;DHT22;48483;44.640;7.494;2022-12-05T00:50:28;7.80;99.90
39957;DHT22;48483;44.640;7.494;2022-12-05T00:52:55;7.80;99.90
39957;DHT22;48483;44.640;7.494;2022-12-05T00:55:23;7.80;99.90
39957;DHT22;48483;44.640;7.494;2022-12-05T00:57:50;7.80;99.90
39957;DHT22;48483;44.640;7.494;2022-12-05T01:00:17;7.80;99.90
39957;DHT22;48483;44.640;7.494;2022-12-05T01:02:44;7.80;99.90
39957;DHT22;48483;44.640;7.494;2022-12-05T01:05:12;7.80;99.90
39957;DHT22;48483;44.640;7.494;2022-12-05T01:07:38;7.80;99.90
39957;DHT22;48483;44.640;7.494;2022-12-05T01:10:06;7.80;99.90
39957;DHT22;48483;44.640;7.494;2022-12-05T01:12:34;7.70;99.90
39957;DHT22;48483;44.640;7.494;2022-12-05T01:15:01;7.70;99.90
39957;DHT22;48483;44.640;7.494;2022-12-05T01:17:28;7.70;99.90
39957;DHT22;48483;44.640;7.494;2022-12-05T01:19:54;7.70;99.90
39957;DHT22;48483;44.640;7.494;2022-12-05T01:22:21;7.70;99.90
39957;DHT22;48483;44.640;7.494;2022-12-05T01:24:47;7.70;99.90
39957;DHT22;48483;44.640;7.494;2022-12-05T01:27:14;7.70;99.90
39957;DHT22;48483;44.640;7.494;2022-12-05T01:29:42;7.70;99.90
39957;DHT22;48483;44.640;7.494;2022-12-05T01:32:08;7.70;99.90
39957;DHT22;48483;44.640;7.494;2022-12-05T01:34:35;7.70;99.90
39957;DHT22;48483;44.640;7.494;2022-12-05T01:37:01;7.70;99.90
39957;DHT22;48483;44.640;7.494;2022-12-05T01:39:28;7.70;99.90
39957;DHT22;48483;44.640;7.494;2022-12-05T01:41:54;7.70;99.90
39957;DHT22;48483;44.640;7.494;2022-12-05T01:45:00;7.60;99.90
39957;DHT22;48483;44.640;7.494;2022-12-05T01:47:31;7.70;99.90
39957;DHT22;48483;44.640;7.494;2022-12-05T01:49:58;7.70;99.90
39957;DHT22;48483;44.640;7.494;2022-12-05T01:52:27;7.70;99.90
39957;DHT22;48483;44.640;7.494;2022-12-05T01:54:59;7.60;99.90
39957;DHT22;48483;44.640;7.494;2022-12-05T01:57:26;7.60;99.90
39957;DHT22;48483;44.640;7.494;2022-12-05T01:59:56;7.60;99.90
39957;DHT22;48483;44.640;7.494;2022-12-05T02:02:25;7.60;99.90
39957;DHT22;48483;44.640;7.494;2022-12-05T02:04:58;7.60;99.90
39957;DHT22;48483;44.640;7.494;2022-12-05T02:07:26;7.60;99.90
39957;DHT22;48483;44.640;7.494;2022-12-05T02:09:53;7.60;99.90
39957;DHT22;48483;44.640;7.494;2022-12-05T02:12:20;7.60;99.90
39957;DHT22;48483;44.640;7.494;2022-12-05T02:15:01;7.60;99.90
39957;DHT22;48483;44.640;7.494;2022-12-05T02:17:38;7.50;99.90
39957;DHT22;48483;44.640;7.494;2022-12-05T02:20:16;7.50;99.90
39957;DHT22;48483;44.640;7.494;2022-12-05T02:23:07;7.50;99.90
39957;DHT22;48483;44.640;7.494;2022-12-05T02:29:09;7.50;99.90
39957;DHT22;48483;44.640;7.494;2022-12-05T02:31:46;7.50;99.90
39957;DHT22;48483;44.640;7.494;2022-12-05T02:34:21;7.50;99.90
39957;DHT22;48483;44.640;7.494;2022-12-05T02:36:56;7.40;99.90
39957;DHT22;48483;44.640;7.494;2022-12-05T02:39:31;7.40;99.90
39957;DHT22;48483;44.640;7.494;2022-12-05T02:42:04;7.50;99.90
39957;DHT22;48483;44.640;7.494;2022-12-05T02:44:38;7.40;99.90
39957;DHT22;48483;44.640;7.494;2022-12-05T02:47:08;7.40;99.90
39957;DHT22;48483;44.640;7.494;2022-12-05T02:49:39;7.40;99.90
39957;DHT22;48483;44.640;7.494;2022-12-05T02:52:11;7.40;99.90
39957;DHT22;48483;44.640;7.494;2022-12-05T02:54:41;7.40;99.90
39957;DHT22;48483;44.640;7.494;2022-12-05T02:57:09;7.40;99.90
39957;DHT22;48483;44.640;7.494;2022-12-05T02:59:36;7.40;99.90
39957;DHT22;48483;44.640;7.494;2022-12-05T03:02:03;7.40;99.90
39957;DHT22;48483;44.640;7.494;2022-12-05T03:04:32;7.40;99.90
39957;DHT22;48483;44.640;7.494;2022-12-05T03:07:00;7.40;99.90
39957;DHT22;48483;44.640;7.494;2022-12-05T03:09:32;7.40;99.90
39957;DHT22;48483;44.640;7.494;2022-12-05T03:12:07;7.50;99.90
39957;DHT22;48483;44.640;7.494;2022-12-05T03:14:39;7.40;99.90
39957;DHT22;48483;44.640;7.494;2022-12-05T03:17:10;7.40;99.90
39957;DHT22;48483;44.640;7.494;2022-12-05T03:19:47;7.40;99.90
39957;DHT22;48483;44.640;7.494;2022-12-05T03:22:19;7.40;99.90
39957;DHT22;48483;44.640;7.494;2022-12-05T03:24:47;7.40;99.90
39957;DHT22;48483;44.640;7.494;2022-12-05T03:27:20;7.40;99.90
39957;DHT22;48483;44.640;7.494;2022-12-05T03:29:52;7.50;99.90
39957;DHT22;48483;44.640;7.494;2022-12-05T03:32:23;7.40;99.90
39957;DHT22;48483;44.640;7.494;2022-12-05T03:35:01;7.40;99.90
39957;DHT22;48483;44.640;7.494;2022-12-05T03:37:37;7.50;99.90
39957;DHT22;48483;44.640;7.494;2022-12-05T03:40:13;7.50;99.90
39957;DHT22;48483;44.640;7.494;2022-12-05T03:42:48;7.50;99.90
39957;DHT22;48483;44.640;7.494;2022-12-05T03:45:21;7.50;99.90
39957;DHT22;48483;44.640;7.494;2022-12-05T03:47:51;7.50;99.90
39957;DHT22;48483;44.640;7.494;2022-12-05T03:50:25;7.50;99.90
39957;DHT22;48483;44.640;7.494;2022-12-05T03:52:53;7.50;99.90
39957;DHT22;48483;44.640;7.494;2022-12-05T03:55:22;7.50;99.90
39957;DHT22;48483;44.640;7.494;2022-12-05T03:57:55;7.50;99.90
39957;DHT22;48483;44.640;7.494;2022-12-05T04:00:23;7.50;99.90
39957;DHT22;48483;44.640;7.494;2022-12-05T04:02:54;7.50;99.90
39957;DHT22;48483;44.640;7.494;2022-12-05T04:05:27;7.50;99.90
39957;DHT22;48483;44.640;7.494;2022-12-05T04:07:59;7.50;99.90
39957;DHT22;48483;44.640;7.494;2022-12-05T04:10:28;7.50;99.90
39957;DHT22;48483;44.640;7.494;2022-12-05T04:13:01;7.50;99.90
39957;DHT22;48483;44.640;7.494;2022-12-05T04:15:48;7.50;99.90
39957;DHT22;48483;44.640;7.494;2022-12-05T04:18:36;7.40;99.90
39957;DHT22;48483;44.640;7.494;2022-12-05T04:21:05;7.40;99.90
39957;DHT22;48483;44.640;7.494;2022-12-05T04:23:51;7.40;99.90
39957;DHT22;48483;44.640;7.494;2022-12-05T04:26:43;7.30;99.90
39957;DHT22;48483;44.640;7.494;2022-12-05T04:29:18;7.30;99.90
39957;DHT22;48483;44.640;7.494;2022-12-05T04:31:51;7.30;99.90
39957;DHT22;48483;44.640;7.494;2022-12-05T04:34:22;7.30;99.90
39957;DHT22;48483;44.640;7.494;2022-12-05T04:36:54;7.30;99.90
39957;DHT22;48483;44.640;7.494;2022-12-05T04:39:26;7.30;99.90
39957;DHT22;48483;44.640;7.494;2022-12-05T04:41:59;7.20;99.90
39957;DHT22;48483;44.640;7.494;2022-12-05T04:44:31;7.20;99.90
39957;DHT22;48483;44.640;7.494;2022-12-05T04:47:01;7.20;99.90
39957;DHT22;48483;44.640;7.494;2022-12-05T04:49:30;7.10;99.90
39957;DHT22;48483;44.640;7.494;2022-12-05T04:52:02;7.10;99.90
39957;DHT22;48483;44.640;7.494;2022-12-05T04:54:31;7.10;99.90
39957;DHT22;48483;44.640;7.494;2022-12-05T04:57:05;7.10;99.90
39957;DHT22;48483;44.640;7.494;2022-12-05T04:59:33;7.10;99.90
39957;DHT22;48483;44.640;7.494;2022-12-05T05:02:05;7.00;99.90
39957;DHT22;48483;44.640;7.494;2022-12-05T05:04:35;7.00;99.90
39957;DHT22;48483;44.640;7.494;2022-12-05T05:07:06;6.90;99.90
39957;DHT22;48483;44.640;7.494;2022-12-05T05:09:33;6.90;99.90
39957;DHT22;48483;44.640;7.494;2022-12-05T05:12:00;6.90;99.90
39957;DHT22;48483;44.640;7.494;2022-12-05T05:14:27;6.90;99.90
39957;DHT22;48483;44.640;7.494;2022-12-05T05:16:54;6.80;99.90
39957;DHT22;48483;44.640;7.494;2022-12-05T05:19:21;6.80;99.90
39957;DHT22;48483;44.640;7.494;2022-12-05T05:21:48;6.70;99.90
39957;DHT22;48483;44.640;7.494;2022-12-05T05:24:16;6.70;99.90
39957;DHT22;48483;44.640;7.494;2022-12-05T05:26:44;6.70;99.90
39957;DHT22;48483;44.640;7.494;2022-12-05T05:29:11;6.60;99.90
39957;DHT22;48483;44.640;7.494;2022-12-05T05:31:39;6.60;99.90
39957;DHT22;48483;44.640;7.494;2022-12-05T05:34:06;6.60;99.90
39957;DHT22;48483;44.640;7.494;2022-12-05T05:36:32;6.60;99.90
39957;DHT22;48483;44.640;7.494;2022-12-05T05:39:01;6.50;99.90
39957;DHT22;48483;44.640;7.494;2022-12-05T05:41:31;6.50;99.90
39957;DHT22;48483;44.640;7.494;2022-12-05T05:43:58;6.50;99.90
39957;DHT22;48483;44.640;7.494;2022-12-05T05:46:27;6.50;99.90
39957;DHT22;48483;44.640;7.494;2022-12-05T05:48:54;6.40;99.90
39957;DHT22;48483;44.640;7.494;2022-12-05T05:51:22;6.40;99.90
39957;DHT22;48483;44.640;7.494;2022-12-05T05:53:51;6.40;99.90
39957;DHT22;48483;44.640;7.494;2022-12-05T05:56:18;6.40;99.90
39957;DHT22;48483;44.640;7.494;2022-12-05T05:58:54;6.40;99.90
39957;DHT22;48483;44.640;7.494;2022-12-05T06:01:21;6.40;99.90
39957;DHT22;48483;44.640;7.494;2022-12-05T06:03:48;6.30;99.90
39957;DHT22;48483;44.640;7.494;2022-12-05T06:06:15;6.30;99.90
39957;DHT22;48483;44.640;7.494;2022-12-05T06:08:43;6.30;99.90
39957;DHT22;48483;44.640;7.494;2022-12-05T06:11:12;6.20;99.90
39957;DHT22;48483;44.640;7.494;2022-12-05T06:13:39;6.30;99.90
39957;DHT22;48483;44.640;7.494;2022-12-05T06:16:09;6.20;99.90
39957;DHT22;48483;44.640;7.494;2022-12-05T06:18:36;6.20;99.90
39957;DHT22;48483;44.640;7.494;2022-12-05T06:21:03;6.20;99.90
39957;DHT22;48483;44.640;7.494;2022-12-05T06:23:34;6.10;99.90
39957;DHT22;48483;44.640;7.494;2022-12-05T06:26:01;6.10;99.90
39957;DHT22;48483;44.640;7.494;2022-12-05T06:28:28;6.10;99.90
39957;DHT22;48483;44.640;7.494;2022-12-05T06:30:54;6.10;99.90
39957;DHT22;48483;44.640;7.494;2022-12-05T06:33:23;6.00;99.90
39957;DHT22;48483;44.640;7.494;2022-12-05T06:36:00;6.00;99.90
39957;DHT22;48483;44.640;7.494;2022-12-05T06:38:27;5.90;99.90
39957;DHT22;48483;44.640;7.494;2022-12-05T06:40:54;5.90;99.90
39957;DHT22;48483;44.640;7.494;2022-12-05T06:43:20;5.90;99.90
39957;DHT22;48483;44.640;7.494;2022-12-05T06:45:47;5.90;99.90
39957;DHT22;48483;44.640;7.494;2022-12-05T06:48:13;5.90;99.90
39957;DHT22;48483;44.640;7.494;2022-12-05T06:50:47;5.90;99.90
39957;DHT22;48483;44.640;7.494;2022-12-05T06:53:14;5.90;99.90
39957;DHT22;48483;44.640;7.494;2022-12-05T06:55:40;5.90;99.90
39957;DHT22;48483;44.640;7.494;2022-12-05T06:58:07;5.90;99.90
39957;DHT22;48483;44.640;7.494;2022-12-05T07:00:33;5.90;99.90
39957;DHT22;48483;44.640;7.494;2022-12-05T07:03:18;5.90;99.90
39957;DHT22;48483;44.640;7.494;2022-12-05T07:05:46;5.90;99.90
39957;DHT22;48483;44.640;7.494;2022-12-05T07:08:13;5.90;99.90
39957;DHT22;48483;44.640;7.494;2022-12-05T07:10:40;5.90;99.90
39957;DHT22;48483;44.640;7.494;2022-12-05T07:13:06;5.90;99.90
39957;DHT22;48483;44.640;7.494;2022-12-05T07:15:33;5.90;99.90
39957;DHT22;48483;44.640;7.494;2022-12-05T07:17:59;5.90;99.90
39957;DHT22;48483;44.640;7.494;2022-12-05T07:20:26;5.90;99.90
39957;DHT22;48483;44.640;7.494;2022-12-05T07:22:54;5.90;99.90
39957;DHT22;48483;44.640;7.494;2022-12-05T07:25:20;6.00;99.90
39957;DHT22;48483;44.640;7.494;2022-12-05T07:27:48;6.00;99.90
39957;DHT22;48483;44.640;7.494;2022-12-05T07:30:15;6.00;99.90
39957;DHT22;48483;44.640;7.494;2022-12-05T07:32:42;6.10;99.90
39957;DHT22;48483;44.640;7.494;2022-12-05T07:35:08;6.00;99.90
39957;DHT22;48483;44.640;7.494;2022-12-05T07:37:35;6.00;99.90
39957;DHT22;48483;44.640;7.494;2022-12-05T07:40:04;6.00;99.90
39957;DHT22;48483;44.640;7.494;2022-12-05T07:42:31;6.10;99.90
39957;DHT22;48483;44.640;7.494;2022-12-05T07:44:58;6.10;99.90
39957;DHT22;48483;44.640;7.494;2022-12-05T07:47:24;6.10;99.90
39957;DHT22;48483;44.640;7.494;2022-12-05T07:49:51;6.20;99.90
39957;DHT22;48483;44.640;7.494;2022-12-05T07:52:18;6.20;99.90
39957;DHT22;48483;44.640;7.494;2022-12-05T07:54:44;6.30;99.90
39957;DHT22;48483;44.640;7.494;2022-12-05T07:57:12;6.30;99.90
39957;DHT22;48483;44.640;7.494;2022-12-05T07:59:39;6.40;99.90
39957;DHT22;48483;44.640;7.494;2022-12-05T08:02:07;6.40;99.90
39957;DHT22;48483;44.640;7.494;2022-12-05T08:04:33;6.50;99.90
39957;DHT22;48483;44.640;7.494;2022-12-05T08:07:00;6.60;99.90
39957;DHT22;48483;44.640;7.494;2022-12-05T08:09:26;6.70;99.90
39957;DHT22;48483;44.640;7.494;2022-12-05T08:11:53;6.70;99.90
39957;DHT22;48483;44.640;7.494;2022-12-05T08:14:21;6.80;99.90
39957;DHT22;48483;44.640;7.494;2022-12-05T08:16:48;6.80;99.90
39957;DHT22;48483;44.640;7.494;2022-12-05T08:19:14;6.90;99.90
39957;DHT22;48483;44.640;7.494;2022-12-05T08:21:42;7.00;99.90
39957;DHT22;48483;44.640;7.494;2022-12-05T08:24:10;7.00;99.90
39957;DHT22;48483;44.640;7.494;2022-12-05T08:26:37;7.10;99.90
39957;DHT22;48483;44.640;7.494;2022-12-05T08:29:06;7.20;99.90
39957;DHT22;48483;44.640;7.494;2022-12-05T08:31:37;7.20;99.90
39957;DHT22;48483;44.640;7.494;2022-12-05T08:34:04;7.30;99.90
39957;DHT22;48483;44.640;7.494;2022-12-05T08:36:31;7.40;99.90
39957;DHT22;48483;44.640;7.494;2022-12-05T08:38:59;7.50;99.90
39957;DHT22;48483;44.640;7.494;2022-12-05T08:41:26;7.50;99.90
39957;DHT22;48483;44.640;7.494;2022-12-05T08:43:57;7.50;99.90
39957;DHT22;48483;44.640;7.494;2022-12-05T08:46:24;7.50;99.90
39957;DHT22;48483;44.640;7.494;2022-12-05T08:48:52;7.60;99.90
39957;DHT22;48483;44.640;7.494;2022-12-05T08:51:19;7.60;99.90
39957;DHT22;48483;44.640;7.494;2022-12-05T08:53:46;7.60;99.90
39957;DHT22;48483;44.640;7.494;2022-12-05T08:56:12;7.70;99.90
39957;DHT22;48483;44.640;7.494;2022-12-05T08:58:40;7.60;99.90
39957;DHT22;48483;44.640;7.494;2022-12-05T09:01:08;7.70;99.90
39957;DHT22;48483;44.640;7.494;2022-12-05T09:03:36;7.70;99.90
39957;DHT22;48483;44.640;7.494;2022-12-05T09:06:10;7.80;99.90
39957;DHT22;48483;44.640;7.494;2022-12-05T09:08:37;7.80;99.90
39957;DHT22;48483;44.640;7.494;2022-12-05T09:11:06;7.80;99.90
39957;DHT22;48483;44.640;7.494;2022-12-05T09:13:32;7.90;99.90
39957;DHT22;48483;44.640;7.494;2022-12-05T09:16:04;7.90;99.90
39957;DHT22;48483;44.640;7.494;2022-12-05T09:18:31;8.00;99.90
39957;DHT22;48483;44.640;7.494;2022-12-05T09:21:03;8.00;99.90
39957;DHT22;48483;44.640;7.494;2022-12-05T09:23:31;8.00;99.90
39957;DHT22;48483;44.640;7.494;2022-12-05T09:25:58;8.00;99.90
39957;DHT22;48483;44.640;7.494;2022-12-05T09:28:28;8.00;99.90
39957;DHT22;48483;44.640;7.494;2022-12-05T09:30:55;8.10;99.90
39957;DHT22;48483;44.640;7.494;2022-12-05T09:33:23;8.10;99.90
39957;DHT22;48483;44.640;7.494;2022-12-05T09:35:50;8.20;99.90
39957;DHT22;48483;44.640;7.494;2022-12-05T09:38:16;8.20;99.90
39957;DHT22;48483;44.640;7.494;2022-12-05T09:40:44;8.20;99.90
39957;DHT22;48483;44.640;7.494;2022-12-05T09:43:21;8.20;99.90
39957;DHT22;48483;44.640;7.494;2022-12-05T09:45:53;8.30;99.90
39957;DHT22;48483;44.640;7.494;2022-12-05T09:48:24;8.30;99.90
39957;DHT22;48483;44.640;7.494;2022-12-05T09:50:54;8.30;99.90
39957;DHT22;48483;44.640;7.494;2022-12-05T09:53:26;8.40;99.90
39957;DHT22;48483;44.640;7.494;2022-12-05T09:56:01;8.40;99.90
39957;DHT22;48483;44.640;7.494;2022-12-05T09:58:37;8.40;99.90
39957;DHT22;48483;44.640;7.494;2022-12-05T10:01:30;8.40;99.90
39957;DHT22;48483;44.640;7.494;2022-12-05T10:04:24;8.50;99.90
39957;DHT22;48483;44.640;7.494;2022-12-05T10:06:59;8.50;99.90
39957;DHT22;48483;44.640;7.494;2022-12-05T10:09:34;8.50;99.90
39957;DHT22;48483;44.640;7.494;2022-12-05T10:12:15;8.60;99.90
39957;DHT22;48483;44.640;7.494;2022-12-05T10:14:51;8.60;99.90
39957;DHT22;48483;44.640;7.494;2022-12-05T10:17:25;8.70;99.90
39957;DHT22;48483;44.640;7.494;2022-12-05T10:19:56;8.70;99.90
39957;DHT22;48483;44.640;7.494;2022-12-05T10:22:27;8.80;99.90
39957;DHT22;48483;44.640;7.494;2022-12-05T10:24:59;8.80;99.90
39957;DHT22;48483;44.640;7.494;2022-12-05T10:27:32;8.80;99.90
39957;DHT22;48483;44.640;7.494;2022-12-05T10:30:03;8.90;99.90
39957;DHT22;48483;44.640;7.494;2022-12-05T10:32:35;8.90;99.90
39957;DHT22;48483;44.640;7.494;2022-12-05T10:35:14;8.90;99.90
39957;DHT22;48483;44.640;7.494;2022-12-05T10:37:44;9.00;99.90
39957;DHT22;48483;44.640;7.494;2022-12-05T10:40:12;9.00;99.90
39957;DHT22;48483;44.640;7.494;2022-12-05T10:42:40;9.00;99.90
39957;DHT22;48483;44.640;7.494;2022-12-05T10:45:14;9.10;99.90
39957;DHT22;48483;44.640;7.494;2022-12-05T10:47:41;9.10;99.90
39957;DHT22;48483;44.640;7.494;2022-12-05T10:50:19;9.10;99.90
39957;DHT22;48483;44.640;7.494;2022-12-05T10:52:47;9.20;99.90
39957;DHT22;48483;44.640;7.494;2022-12-05T10:55:16;9.20;99.90
39957;DHT22;48483;44.640;7.494;2022-12-05T10:57:49;9.30;99.90
39957;DHT22;48483;44.640;7.494;2022-12-05T11:00:19;9.30;99.90
39957;DHT22;48483;44.640;7.494;2022-12-05T11:02:47;9.30;99.90
39957;DHT22;48483;44.640;7.494;2022-12-05T11:05:15;9.40;99.90
39957;DHT22;48483;44.640;7.494;2022-12-05T11:07:46;9.40;99.90
39957;DHT22;48483;44.640;7.494;2022-12-05T11:10:21;9.40;99.90
39957;DHT22;48483;44.640;7.494;2022-12-05T11:12:50;9.50;99.90
39957;DHT22;48483;44.640;7.494;2022-12-05T11:15:21;9.50;99.90
39957;DHT22;48483;44.640;7.494;2022-12-05T11:17:51;9.50;99.90
39957;DHT22;48483;44.640;7.494;2022-12-05T11:20:37;9.60;99.90
39957;DHT22;48483;44.640;7.494;2022-12-05T11:23:22;9.50;99.90
39957;DHT22;48483;44.640;7.494;2022-12-05T11:25:49;9.60;99.90
39957;DHT22;48483;44.640;7.494;2022-12-05T11:28:32;9.60;99.90
39957;DHT22;48483;44.640;7.494;2022-12-05T11:31:01;9.60;99.90
39957;DHT22;48483;44.640;7.494;2022-12-05T11:33:29;9.70;99.90
39957;DHT22;48483;44.640;7.494;2022-12-05T11:36:02;9.70;99.90
39957;DHT22;48483;44.640;7.494;2022-12-05T11:38:30;9.70;99.90
39957;DHT22;48483;44.640;7.494;2022-12-05T11:41:16;9.80;99.90
39957;DHT22;48483;44.640;7.494;2022-12-05T11:44:05;9.80;99.90
39957;DHT22;48483;44.640;7.494;2022-12-05T11:46:45;9.80;99.90
39957;DHT22;48483;44.640;7.494;2022-12-05T11:52:09;9.80;99.90
39957;DHT22;48483;44.640;7.494;2022-12-05T11:54:53;9.90;99.90
39957;DHT22;48483;44.640;7.494;2022-12-05T11:57:31;10.00;99.90
39957;DHT22;48483;44.640;7.494;2022-12-05T12:00:22;10.10;99.90
39957;DHT22;48483;44.640;7.494;2022-12-05T12:03:03;10.10;99.90
39957;DHT22;48483;44.640;7.494;2022-12-05T12:05:39;10.10;99.90
39957;DHT22;48483;44.640;7.494;2022-12-05T12:08:15;10.10;99.90
39957;DHT22;48483;44.640;7.494;2022-12-05T12:10:49;10.10;99.90
39957;DHT22;48483;44.640;7.494;2022-12-05T12:13:27;10.10;99.90
39957;DHT22;48483;44.640;7.494;2022-12-05T12:16:07;10.20;99.90
39957;DHT22;48483;44.640;7.494;2022-12-05T12:18:49;10.30;99.90
39957;DHT22;48483;44.640;7.494;2022-12-05T12:21:18;10.30;99.90
39957;DHT22;48483;44.640;7.494;2022-12-05T12:24:01;10.30;99.90
39957;DHT22;48483;44.640;7.494;2022-12-05T12:26:39;10.20;99.90
39957;DHT22;48483;44.640;7.494;2022-12-05T12:29:20;10.30;99.90
39957;DHT22;48483;44.640;7.494;2022-12-05T12:32:05;10.30;99.90
39957;DHT22;48483;44.640;7.494;2022-12-05T12:37:42;10.30;99.90
39957;DHT22;48483;44.640;7.494;2022-12-05T12:40:13;10.30;99.90
39957;DHT22;48483;44.640;7.494;2022-12-05T12:42:53;10.30;99.90
39957;DHT22;48483;44.640;7.494;2022-12-05T12:45:42;10.30;99.90
39957;DHT22;48483;44.640;7.494;2022-12-05T12:48:34;10.40;99.90
39957;DHT22;48483;44.640;7.494;2022-12-05T12:51:04;10.40;99.90
39957;DHT22;48483;44.640;7.494;2022-12-05T12:53:46;10.40;99.90
39957;DHT22;48483;44.640;7.494;2022-12-05T12:56:23;10.40;99.90
39957;DHT22;48483;44.640;7.494;2022-12-05T12:58:56;10.40;99.90
39957;DHT22;48483;44.640;7.494;2022-12-05T13:01:32;10.30;99.90
39957;DHT22;48483;44.640;7.494;2022-12-05T13:04:07;10.40;99.90
39957;DHT22;48483;44.640;7.494;2022-12-05T13:06:42;10.40;99.90
39957;DHT22;48483;44.640;7.494;2022-12-05T13:09:15;10.50;99.90
39957;DHT22;48483;44.640;7.494;2022-12-05T13:11:45;10.50;99.90
39957;DHT22;48483;44.640;7.494;2022-12-05T13:14:16;10.50;99.90
39957;DHT22;48483;44.640;7.494;2022-12-05T13:16:46;10.50;99.90
39957;DHT22;48483;44.640;7.494;2022-12-05T13:19:26;10.40;99.90
39957;DHT22;48483;44.640;7.494;2022-12-05T13:21:55;10.40;99.90
39957;DHT22;48483;44.640;7.494;2022-12-05T13:24:24;10.40;99.90
39957;DHT22;48483;44.640;7.494;2022-12-05T13:26:52;10.40;99.90
39957;DHT22;48483;44.640;7.494;2022-12-05T13:29:21;10.40;99.90
39957;DHT22;48483;44.640;7.494;2022-12-05T13:31:50;10.30;99.90
39957;DHT22;48483;44.640;7.494;2022-12-05T13:34:43;10.30;99.90
39957;DHT22;48483;44.640;7.494;2022-12-05T13:37:20;10.40;99.90
39957;DHT22;48483;44.640;7.494;2022-12-05T13:40:22;10.40;99.90
39957;DHT22;48483;44.640;7.494;2022-12-05T13:43:09;10.40;99.90
39957;DHT22;48483;44.640;7.494;2022-12-05T13:45:37;10.30;99.90
39957;DHT22;48483;44.640;7.494;2022-12-05T13:48:19;10.20;99.90
39957;DHT22;48483;44.640;7.494;2022-12-05T13:50:53;10.10;99.90
39957;DHT22;48483;44.640;7.494;2022-12-05T13:53:26;10.10;99.90
39957;DHT22;48483;44.640;7.494;2022-12-05T13:55:57;10.10;99.90
39957;DHT22;48483;44.640;7.494;2022-12-05T13:58:50;10.10;99.90
39957;DHT22;48483;44.640;7.494;2022-12-05T14:01:45;10.00;99.90
39957;DHT22;48483;44.640;7.494;2022-12-05T14:04:44;10.00;99.90
39957;DHT22;48483;44.640;7.494;2022-12-05T14:07:39;10.00;99.90
39957;DHT22;48483;44.640;7.494;2022-12-05T14:10:09;10.10;99.90
39957;DHT22;48483;44.640;7.494;2022-12-05T14:12:48;10.10;99.90
39957;DHT22;48483;44.640;7.494;2022-12-05T14:15:27;10.10;99.90
39957;DHT22;48483;44.640;7.494;2022-12-05T14:20:53;10.20;99.90
39957;DHT22;48483;44.640;7.494;2022-12-05T14:23:54;10.20;99.90
39957;DHT22;48483;44.640;7.494;2022-12-05T14:26:38;10.10;99.90
39957;DHT22;48483;44.640;7.494;2022-12-05T14:29:20;10.20;99.90
39957;DHT22;48483;44.640;7.494;2022-12-05T14:32:03;10.20;99.90
39957;DHT22;48483;44.640;7.494;2022-12-05T14:34:33;10.20;99.90
39957;DHT22;48483;44.640;7.494;2022-12-05T14:37:03;10.20;99.90
39957;DHT22;48483;44.640;7.494;2022-12-05T14:39:44;10.10;99.90
39957;DHT22;48483;44.640;7.494;2022-12-05T14:42:25;10.10;99.90
39957;DHT22;48483;44.640;7.494;2022-12-05T14:44:55;10.10;99.90
39957;DHT22;48483;44.640;7.494;2022-12-05T14:47:26;10.10;99.90
39957;DHT22;48483;44.640;7.494;2022-12-05T14:49:56;10.10;99.90
39957;DHT22;48483;44.640;7.494;2022-12-05T14:52:28;10.10;99.90
39957;DHT22;48483;44.640;7.494;2022-12-05T14:55:05;10.10;99.90
39957;DHT22;48483;44.640;7.494;2022-12-05T14:57:43;10.00;99.90
39957;DHT22;48483;44.640;7.494;2022-12-05T15:00:17;10.00;99.90
39957;DHT22;48483;44.640;7.494;2022-12-05T15:02:46;9.90;99.90
39957;DHT22;48483;44.640;7.494;2022-12-05T15:05:21;9.80;99.90
39957;DHT22;48483;44.640;7.494;2022-12-05T15:07:50;9.80;99.90
39957;DHT22;48483;44.640;7.494;2022-12-05T15:10:20;9.70;99.90
39957;DHT22;48483;44.640;7.494;2022-12-05T15:12:48;9.60;99.90
39957;DHT22;48483;44.640;7.494;2022-12-05T15:15:18;9.50;99.90
39957;DHT22;48483;44.640;7.494;2022-12-05T15:17:51;9.50;99.90
39957;DHT22;48483;44.640;7.494;2022-12-05T15:20:26;9.40;99.90
39957;DHT22;48483;44.640;7.494;2022-12-05T15:22:56;9.40;99.90
39957;DHT22;48483;44.640;7.494;2022-12-05T15:25:27;9.30;99.90
39957;DHT22;48483;44.640;7.494;2022-12-05T15:28:00;9.30;99.90
39957;DHT22;48483;44.640;7.494;2022-12-05T15:30:27;9.30;99.90
39957;DHT22;48483;44.640;7.494;2022-12-05T15:32:54;9.20;99.90
39957;DHT22;48483;44.640;7.494;2022-12-05T15:35:24;9.20;99.90
39957;DHT22;48483;44.640;7.494;2022-12-05T15:37:54;9.20;99.90
39957;DHT22;48483;44.640;7.494;2022-12-05T15:40:25;9.20;99.90
39957;DHT22;48483;44.640;7.494;2022-12-05T15:43:27;9.10;99.90
39957;DHT22;48483;44.640;7.494;2022-12-05T15:46:08;9.00;99.90
39957;DHT22;48483;44.640;7.494;2022-12-05T15:48:35;9.00;99.90
39957;DHT22;48483;44.640;7.494;2022-12-05T15:51:02;8.90;99.90
39957;DHT22;48483;44.640;7.494;2022-12-05T15:53:32;8.90;99.90
39957;DHT22;48483;44.640;7.494;2022-12-05T15:56:04;8.90;99.90
39957;DHT22;48483;44.640;7.494;2022-12-05T15:58:37;8.80;99.90
39957;DHT22;48483;44.640;7.494;2022-12-05T16:01:10;8.80;99.90
39957;DHT22;48483;44.640;7.494;2022-12-05T16:03:40;8.70;99.90
39957;DHT22;48483;44.640;7.494;2022-12-05T16:06:14;8.80;99.90
39957;DHT22;48483;44.640;7.494;2022-12-05T16:08:43;8.70;99.90
39957;DHT22;48483;44.640;7.494;2022-12-05T16:11:12;8.60;99.90
39957;DHT22;48483;44.640;7.494;2022-12-05T16:13:41;8.60;99.90
39957;DHT22;48483;44.640;7.494;2022-12-05T16:16:14;8.60;99.90
39957;DHT22;48483;44.640;7.494;2022-12-05T16:18:48;8.60;99.90
39957;DHT22;48483;44.640;7.494;2022-12-05T16:21:29;8.50;99.90
39957;DHT22;48483;44.640;7.494;2022-12-05T16:23:59;8.50;99.90